sensor_id;sensor_type;location;lat;lon;timestamp;P1;durP1;ratioP1;P2;durP2;ratioP2
32333;SDS011;18810;53.040;8.850;2023-04-16T00:00:57;41.92;;;26.58;;
32333;SDS011;18810;53.040;8.850;2023-04-16T00:03:22;40.00;;;27.02;;
32333;SDS011;18810;53.040;8.850;2023-04-16T00:05:48;33.75;;;25.85;;
32333;SDS011;18810;53.040;8.850;2023-04-16T00:08:14;37.83;;;25.70;;
32333;SDS011;18810;53.040;8.850;2023-04-16T00:10:39;38.88;;;25.95;;
32333;SDS011;18810;53.040;8.850;2023-04-16T00:13:05;35.88;;;25.20;;
32333;SDS011;18810;53.040;8.850;2023-04-16T00:15:31;39.30;;;26.33;;
32333;SDS011;18810;53.040;8.850;2023-04-16T00:17:57;35.78;;;26.52;;
32333;SDS011;18810;53.040;8.850;2023-04-16T00:20:22;40.10;;;26.90;;
32333;SDS011;18810;53.040;8.850;2023-04-16T00:22:48;38.90;;;25.60;;
32333;SDS011;18810;53.040;8.850;2023-04-16T00:25:15;36.10;;;26.00;;
32333;SDS011;18810;53.040;8.850;2023-04-16T00:27:40;36.78;;;25.15;;
32333;SDS011;18810;53.040;8.850;2023-04-16T00:30:06;37.58;;;27.27;;
32333;SDS011;18810;53.040;8.850;2023-04-16T00:32:32;39.90;;;27.38;;
32333;SDS011;18810;53.040;8.850;2023-04-16T00:34:58;35.45;;;26.27;;
32333;SDS011;18810;53.040;8.850;2023-04-16T00:37:23;37.35;;;26.13;;
32333;SDS011;18810;53.040;8.850;2023-04-16T00:39:49;39.17;;;26.38;;
32333;SDS011;18810;53.040;8.850;2023-04-16T00:42:15;37.90;;;25.90;;
32333;SDS011;18810;53.040;8.850;2023-04-16T00:44:40;40.08;;;26.52;;
32333;SDS011;18810;53.040;8.850;2023-04-16T00:47:06;39.95;;;28.23;;
32333;SDS011;18810;53.040;8.850;2023-04-16T00:49:32;38.70;;;26.63;;
32333;SDS011;18810;53.040;8.850;2023-04-16T00:51:58;39.85;;;26.25;;
32333;SDS011;18810;53.040;8.850;2023-04-16T00:54:26;40.13;;;26.58;;
32333;SDS011;18810;53.040;8.850;2023-04-16T00:56:53;40.40;;;26.95;;
32333;SDS011;18810;53.040;8.850;2023-04-16T00:59:19;41.10;;;27.73;;
32333;SDS011;18810;53.040;8.850;2023-04-16T01:01:45;40.78;;;27.75;;
32333;SDS011;18810;53.040;8.850;2023-04-16T01:04:10;38.65;;;27.17;;
32333;SDS011;18810;53.040;8.850;2023-04-16T01:06:36;45.25;;;28.65;;
32333;SDS011;18810;53.040;8.850;2023-04-16T01:09:02;39.45;;;28.15;;
32333;SDS011;18810;53.040;8.850;2023-04-16T01:11:27;43.25;;;27.80;;
32333;SDS011;18810;53.040;8.850;2023-04-16T01:13:53;40.15;;;26.23;;
32333;SDS011;18810;53.040;8.850;2023-04-16T01:16:19;41.95;;;28.35;;
32333;SDS011;18810;53.040;8.850;2023-04-16T01:18:45;42.45;;;28.00;;
32333;SDS011;18810;53.040;8.850;2023-04-16T01:21:10;40.72;;;27.40;;
32333;SDS011;18810;53.040;8.850;2023-04-16T01:23:36;42.10;;;28.58;;
32333;SDS011;18810;53.040;8.850;2023-04-16T01:26:02;40.22;;;28.05;;
32333;SDS011;18810;53.040;8.850;2023-04-16T01:28:27;43.20;;;28.40;;
32333;SDS011;18810;53.040;8.850;2023-04-16T01:30:53;44.08;;;28.55;;
32333;SDS011;18810;53.040;8.850;2023-04-16T01:33:19;45.92;;;29.25;;
32333;SDS011;18810;53.040;8.850;2023-04-16T01:35:45;43.63;;;29.02;;
32333;SDS011;18810;53.040;8.850;2023-04-16T01:38:11;42.85;;;29.67;;
32333;SDS011;18810;53.040;8.850;2023-04-16T01:40:37;41.25;;;29.17;;
32333;SDS011;18810;53.040;8.850;2023-04-16T01:43:03;45.47;;;30.42;;
32333;SDS011;18810;53.040;8.850;2023-04-16T01:45:32;44.47;;;29.65;;
32333;SDS011;18810;53.040;8.850;2023-04-16T01:47:58;44.25;;;30.48;;
32333;SDS011;18810;53.040;8.850;2023-04-16T01:50:24;45.60;;;29.45;;
32333;SDS011;18810;53.040;8.850;2023-04-16T01:52:50;44.22;;;29.92;;
32333;SDS011;18810;53.040;8.850;2023-04-16T01:55:16;43.95;;;29.25;;
32333;SDS011;18810;53.040;8.850;2023-04-16T01:57:42;45.88;;;30.17;;
32333;SDS011;18810;53.040;8.850;2023-04-16T02:00:07;45.75;;;29.85;;
32333;SDS011;18810;53.040;8.850;2023-04-16T02:02:34;47.33;;;31.20;;
32333;SDS011;18810;53.040;8.850;2023-04-16T02:05:00;43.90;;;29.83;;
32333;SDS011;18810;53.040;8.850;2023-04-16T02:07:26;43.50;;;30.05;;
32333;SDS011;18810;53.040;8.850;2023-04-16T02:09:52;45.83;;;30.58;;
32333;SDS011;18810;53.040;8.850;2023-04-16T02:12:18;47.67;;;30.13;;
32333;SDS011;18810;53.040;8.850;2023-04-16T02:14:44;40.05;;;29.33;;
32333;SDS011;18810;53.040;8.850;2023-04-16T02:17:09;47.78;;;31.95;;
32333;SDS011;18810;53.040;8.850;2023-04-16T02:19:35;42.58;;;30.02;;
32333;SDS011;18810;53.040;8.850;2023-04-16T02:22:01;45.40;;;30.48;;
32333;SDS011;18810;53.040;8.850;2023-04-16T02:24:27;44.70;;;31.17;;
32333;SDS011;18810;53.040;8.850;2023-04-16T02:26:53;43.05;;;29.95;;
32333;SDS011;18810;53.040;8.850;2023-04-16T02:29:19;45.90;;;30.60;;
32333;SDS011;18810;53.040;8.850;2023-04-16T02:31:46;42.60;;;30.77;;
32333;SDS011;18810;53.040;8.850;2023-04-16T02:34:12;43.83;;;30.73;;
32333;SDS011;18810;53.040;8.850;2023-04-16T02:36:38;46.95;;;31.00;;
32333;SDS011;18810;53.040;8.850;2023-04-16T02:39:04;46.47;;;29.40;;
32333;SDS011;18810;53.040;8.850;2023-04-16T02:41:29;46.40;;;30.45;;
32333;SDS011;18810;53.040;8.850;2023-04-16T02:43:55;49.03;;;30.55;;
32333;SDS011;18810;53.040;8.850;2023-04-16T02:46:21;51.50;;;31.50;;
32333;SDS011;18810;53.040;8.850;2023-04-16T02:48:47;46.55;;;30.48;;
32333;SDS011;18810;53.040;8.850;2023-04-16T02:51:12;45.38;;;29.73;;
32333;SDS011;18810;53.040;8.850;2023-04-16T02:53:38;43.65;;;30.58;;
32333;SDS011;18810;53.040;8.850;2023-04-16T02:56:04;48.03;;;31.77;;
32333;SDS011;18810;53.040;8.850;2023-04-16T02:58:30;45.95;;;30.70;;
32333;SDS011;18810;53.040;8.850;2023-04-16T03:00:56;46.35;;;30.63;;
32333;SDS011;18810;53.040;8.850;2023-04-16T03:03:21;48.10;;;29.33;;
32333;SDS011;18810;53.040;8.850;2023-04-16T03:05:47;45.00;;;30.25;;
32333;SDS011;18810;53.040;8.850;2023-04-16T03:08:13;45.03;;;30.33;;
32333;SDS011;18810;53.040;8.850;2023-04-16T03:10:38;43.70;;;29.88;;
32333;SDS011;18810;53.040;8.850;2023-04-16T03:13:05;46.55;;;30.38;;
32333;SDS011;18810;53.040;8.850;2023-04-16T03:15:31;47.78;;;30.20;;
32333;SDS011;18810;53.040;8.850;2023-04-16T03:17:57;42.13;;;28.77;;
32333;SDS011;18810;53.040;8.850;2023-04-16T03:20:23;49.00;;;31.02;;
32333;SDS011;18810;53.040;8.850;2023-04-16T03:22:49;43.60;;;29.25;;
32333;SDS011;18810;53.040;8.850;2023-04-16T03:25:18;42.83;;;29.00;;
32333;SDS011;18810;53.040;8.850;2023-04-16T03:27:43;43.67;;;29.13;;
32333;SDS011;18810;53.040;8.850;2023-04-16T03:30:09;47.38;;;30.30;;
32333;SDS011;18810;53.040;8.850;2023-04-16T03:32:36;45.30;;;29.48;;
32333;SDS011;18810;53.040;8.850;2023-04-16T03:35:02;45.38;;;30.17;;
32333;SDS011;18810;53.040;8.850;2023-04-16T03:37:28;44.25;;;29.35;;
32333;SDS011;18810;53.040;8.850;2023-04-16T03:39:54;45.42;;;31.15;;
32333;SDS011;18810;53.040;8.850;2023-04-16T03:42:20;44.88;;;29.33;;
32333;SDS011;18810;53.040;8.850;2023-04-16T03:44:45;47.03;;;29.88;;
32333;SDS011;18810;53.040;8.850;2023-04-16T03:47:11;41.03;;;28.48;;
32333;SDS011;18810;53.040;8.850;2023-04-16T03:49:37;46.53;;;30.55;;
32333;SDS011;18810;53.040;8.850;2023-04-16T03:52:02;49.15;;;31.80;;
32333;SDS011;18810;53.040;8.850;2023-04-16T03:54:28;45.30;;;28.55;;
32333;SDS011;18810;53.040;8.850;2023-04-16T03:56:53;44.70;;;30.63;;
32333;SDS011;18810;53.040;8.850;2023-04-16T03:59:21;53.35;;;31.63;;
32333;SDS011;18810;53.040;8.850;2023-04-16T04:01:46;47.60;;;30.50;;
32333;SDS011;18810;53.040;8.850;2023-04-16T04:04:12;49.08;;;31.25;;
32333;SDS011;18810;53.040;8.850;2023-04-16T04:06:39;46.05;;;32.03;;
32333;SDS011;18810;53.040;8.850;2023-04-16T04:09:05;44.88;;;30.88;;
32333;SDS011;18810;53.040;8.850;2023-04-16T04:11:31;46.30;;;31.20;;
32333;SDS011;18810;53.040;8.850;2023-04-16T04:13:56;45.20;;;29.70;;
32333;SDS011;18810;53.040;8.850;2023-04-16T04:16:22;47.50;;;31.23;;
32333;SDS011;18810;53.040;8.850;2023-04-16T04:18:48;46.92;;;30.20;;
32333;SDS011;18810;53.040;8.850;2023-04-16T04:21:13;49.90;;;31.52;;
32333;SDS011;18810;53.040;8.850;2023-04-16T04:23:39;46.13;;;32.63;;
32333;SDS011;18810;53.040;8.850;2023-04-16T04:26:06;47.22;;;31.00;;
32333;SDS011;18810;53.040;8.850;2023-04-16T04:28:32;45.45;;;31.40;;
32333;SDS011;18810;53.040;8.850;2023-04-16T04:30:59;49.03;;;31.63;;
32333;SDS011;18810;53.040;8.850;2023-04-16T04:33:25;47.78;;;31.95;;
32333;SDS011;18810;53.040;8.850;2023-04-16T04:35:52;44.83;;;29.23;;
32333;SDS011;18810;53.040;8.850;2023-04-16T04:38:18;49.95;;;31.55;;
32333;SDS011;18810;53.040;8.850;2023-04-16T04:40:46;44.85;;;30.17;;
32333;SDS011;18810;53.040;8.850;2023-04-16T04:43:12;48.13;;;30.02;;
32333;SDS011;18810;53.040;8.850;2023-04-16T04:45:38;50.83;;;29.75;;
32333;SDS011;18810;53.040;8.850;2023-04-16T04:48:04;45.72;;;29.73;;
32333;SDS011;18810;53.040;8.850;2023-04-16T04:50:30;48.92;;;31.05;;
32333;SDS011;18810;53.040;8.850;2023-04-16T04:52:56;50.22;;;30.17;;
32333;SDS011;18810;53.040;8.850;2023-04-16T04:55:22;47.50;;;29.30;;
32333;SDS011;18810;53.040;8.850;2023-04-16T04:57:47;49.50;;;30.20;;
32333;SDS011;18810;53.040;8.850;2023-04-16T05:00:13;46.28;;;30.27;;
32333;SDS011;18810;53.040;8.850;2023-04-16T05:02:40;46.50;;;29.73;;
32333;SDS011;18810;53.040;8.850;2023-04-16T05:05:06;46.55;;;29.92;;
32333;SDS011;18810;53.040;8.850;2023-04-16T05:07:31;45.28;;;29.00;;
32333;SDS011;18810;53.040;8.850;2023-04-16T05:09:57;49.53;;;29.95;;
32333;SDS011;18810;53.040;8.850;2023-04-16T05:12:23;44.72;;;29.25;;
32333;SDS011;18810;53.040;8.850;2023-04-16T05:14:48;45.90;;;28.17;;
32333;SDS011;18810;53.040;8.850;2023-04-16T05:17:14;45.35;;;28.52;;
32333;SDS011;18810;53.040;8.850;2023-04-16T05:19:39;44.70;;;28.85;;
32333;SDS011;18810;53.040;8.850;2023-04-16T05:22:05;46.05;;;29.70;;
32333;SDS011;18810;53.040;8.850;2023-04-16T05:24:31;42.72;;;29.65;;
32333;SDS011;18810;53.040;8.850;2023-04-16T05:26:56;46.10;;;30.00;;
32333;SDS011;18810;53.040;8.850;2023-04-16T05:29:22;46.28;;;29.67;;
32333;SDS011;18810;53.040;8.850;2023-04-16T05:31:48;41.60;;;27.23;;
32333;SDS011;18810;53.040;8.850;2023-04-16T05:34:15;44.58;;;28.75;;
32333;SDS011;18810;53.040;8.850;2023-04-16T05:36:41;47.65;;;28.92;;
32333;SDS011;18810;53.040;8.850;2023-04-16T05:39:06;45.28;;;28.20;;
32333;SDS011;18810;53.040;8.850;2023-04-16T05:41:32;44.30;;;29.17;;
32333;SDS011;18810;53.040;8.850;2023-04-16T05:43:58;43.90;;;27.73;;
32333;SDS011;18810;53.040;8.850;2023-04-16T05:46:27;45.25;;;28.25;;
32333;SDS011;18810;53.040;8.850;2023-04-16T05:48:52;42.25;;;27.02;;
32333;SDS011;18810;53.040;8.850;2023-04-16T05:51:18;44.55;;;28.25;;
32333;SDS011;18810;53.040;8.850;2023-04-16T05:53:46;38.17;;;25.70;;
32333;SDS011;18810;53.040;8.850;2023-04-16T05:56:12;40.63;;;27.27;;
32333;SDS011;18810;53.040;8.850;2023-04-16T05:58:38;39.15;;;26.38;;
32333;SDS011;18810;53.040;8.850;2023-04-16T06:01:04;36.65;;;25.30;;
32333;SDS011;18810;53.040;8.850;2023-04-16T06:03:31;44.78;;;26.63;;
32333;SDS011;18810;53.040;8.850;2023-04-16T06:05:57;39.67;;;26.20;;
32333;SDS011;18810;53.040;8.850;2023-04-16T06:08:22;35.97;;;24.63;;
32333;SDS011;18810;53.040;8.850;2023-04-16T06:10:48;40.55;;;26.00;;
32333;SDS011;18810;53.040;8.850;2023-04-16T06:13:14;39.42;;;26.13;;
32333;SDS011;18810;53.040;8.850;2023-04-16T06:15:39;37.45;;;25.15;;
32333;SDS011;18810;53.040;8.850;2023-04-16T06:18:05;37.83;;;25.23;;
32333;SDS011;18810;53.040;8.850;2023-04-16T06:20:30;39.33;;;26.10;;
32333;SDS011;18810;53.040;8.850;2023-04-16T06:22:56;38.03;;;25.33;;
32333;SDS011;18810;53.040;8.850;2023-04-16T06:25:22;38.83;;;25.67;;
32333;SDS011;18810;53.040;8.850;2023-04-16T06:27:47;38.92;;;25.27;;
32333;SDS011;18810;53.040;8.850;2023-04-16T06:30:14;38.60;;;25.42;;
32333;SDS011;18810;53.040;8.850;2023-04-16T06:32:43;38.45;;;24.88;;
32333;SDS011;18810;53.040;8.850;2023-04-16T06:35:10;36.15;;;24.05;;
32333;SDS011;18810;53.040;8.850;2023-04-16T06:37:36;39.65;;;23.88;;
32333;SDS011;18810;53.040;8.850;2023-04-16T06:40:02;37.92;;;24.42;;
32333;SDS011;18810;53.040;8.850;2023-04-16T06:42:28;33.90;;;23.58;;
32333;SDS011;18810;53.040;8.850;2023-04-16T06:44:54;37.75;;;23.90;;
32333;SDS011;18810;53.040;8.850;2023-04-16T06:47:20;34.25;;;23.90;;
32333;SDS011;18810;53.040;8.850;2023-04-16T06:49:45;37.30;;;23.95;;
32333;SDS011;18810;53.040;8.850;2023-04-16T06:52:11;36.30;;;23.73;;
32333;SDS011;18810;53.040;8.850;2023-04-16T06:54:37;39.22;;;23.92;;
32333;SDS011;18810;53.040;8.850;2023-04-16T06:57:03;37.88;;;24.98;;
32333;SDS011;18810;53.040;8.850;2023-04-16T06:59:28;36.55;;;24.05;;
32333;SDS011;18810;53.040;8.850;2023-04-16T07:01:54;37.38;;;24.77;;
32333;SDS011;18810;53.040;8.850;2023-04-16T07:04:20;36.88;;;23.27;;
32333;SDS011;18810;53.040;8.850;2023-04-16T07:06:46;35.65;;;24.40;;
32333;SDS011;18810;53.040;8.850;2023-04-16T07:09:11;37.67;;;24.30;;
32333;SDS011;18810;53.040;8.850;2023-04-16T07:11:37;33.60;;;23.17;;
32333;SDS011;18810;53.040;8.850;2023-04-16T07:14:03;35.05;;;23.23;;
32333;SDS011;18810;53.040;8.850;2023-04-16T07:16:29;34.70;;;22.92;;
32333;SDS011;18810;53.040;8.850;2023-04-16T07:18:55;39.80;;;24.73;;
32333;SDS011;18810;53.040;8.850;2023-04-16T07:21:21;35.17;;;23.67;;
32333;SDS011;18810;53.040;8.850;2023-04-16T07:23:46;34.33;;;24.27;;
32333;SDS011;18810;53.040;8.850;2023-04-16T07:26:12;35.67;;;23.58;;
32333;SDS011;18810;53.040;8.850;2023-04-16T07:28:38;36.53;;;23.80;;
32333;SDS011;18810;53.040;8.850;2023-04-16T07:31:03;39.10;;;23.92;;
32333;SDS011;18810;53.040;8.850;2023-04-16T07:33:29;36.28;;;23.42;;
32333;SDS011;18810;53.040;8.850;2023-04-16T07:35:55;40.88;;;23.63;;
32333;SDS011;18810;53.040;8.850;2023-04-16T07:38:21;36.70;;;23.67;;
32333;SDS011;18810;53.040;8.850;2023-04-16T07:40:46;33.97;;;22.67;;
32333;SDS011;18810;53.040;8.850;2023-04-16T07:43:12;34.30;;;22.63;;
32333;SDS011;18810;53.040;8.850;2023-04-16T07:45:40;36.47;;;23.10;;
32333;SDS011;18810;53.040;8.850;2023-04-16T07:48:06;32.88;;;22.25;;
32333;SDS011;18810;53.040;8.850;2023-04-16T07:50:31;33.75;;;22.85;;
32333;SDS011;18810;53.040;8.850;2023-04-16T07:52:57;35.42;;;23.60;;
32333;SDS011;18810;53.040;8.850;2023-04-16T07:55:22;32.55;;;22.75;;
32333;SDS011;18810;53.040;8.850;2023-04-16T07:57:48;34.28;;;22.90;;
32333;SDS011;18810;53.040;8.850;2023-04-16T08:00:14;34.90;;;22.92;;
32333;SDS011;18810;53.040;8.850;2023-04-16T08:02:40;35.97;;;22.33;;
32333;SDS011;18810;53.040;8.850;2023-04-16T08:05:06;35.63;;;22.73;;
32333;SDS011;18810;53.040;8.850;2023-04-16T08:07:31;34.75;;;22.27;;
32333;SDS011;18810;53.040;8.850;2023-04-16T08:09:57;31.67;;;22.08;;
32333;SDS011;18810;53.040;8.850;2023-04-16T08:12:23;34.63;;;23.67;;
32333;SDS011;18810;53.040;8.850;2023-04-16T08:14:48;32.45;;;21.98;;
32333;SDS011;18810;53.040;8.850;2023-04-16T08:17:14;32.00;;;20.88;;
32333;SDS011;18810;53.040;8.850;2023-04-16T08:19:40;30.83;;;21.90;;
32333;SDS011;18810;53.040;8.850;2023-04-16T08:22:07;30.65;;;21.55;;
32333;SDS011;18810;53.040;8.850;2023-04-16T08:24:33;34.47;;;21.73;;
32333;SDS011;18810;53.040;8.850;2023-04-16T08:26:59;29.65;;;21.42;;
32333;SDS011;18810;53.040;8.850;2023-04-16T08:29:24;34.00;;;22.05;;
32333;SDS011;18810;53.040;8.850;2023-04-16T08:31:53;32.15;;;21.63;;
32333;SDS011;18810;53.040;8.850;2023-04-16T08:34:19;37.30;;;22.13;;
32333;SDS011;18810;53.040;8.850;2023-04-16T08:36:45;29.10;;;21.15;;
32333;SDS011;18810;53.040;8.850;2023-04-16T08:39:11;30.95;;;20.50;;
32333;SDS011;18810;53.040;8.850;2023-04-16T08:41:37;31.05;;;21.20;;
32333;SDS011;18810;53.040;8.850;2023-04-16T08:44:10;33.30;;;21.10;;
32333;SDS011;18810;53.040;8.850;2023-04-16T08:46:45;31.52;;;20.17;;
32333;SDS011;18810;53.040;8.850;2023-04-16T08:49:14;36.67;;;21.23;;
32333;SDS011;18810;53.040;8.850;2023-04-16T08:51:47;30.50;;;20.45;;
32333;SDS011;18810;53.040;8.850;2023-04-16T08:54:17;31.48;;;21.73;;
32333;SDS011;18810;53.040;8.850;2023-04-16T08:56:45;28.27;;;20.73;;
32333;SDS011;18810;53.040;8.850;2023-04-16T08:59:12;28.95;;;20.10;;
32333;SDS011;18810;53.040;8.850;2023-04-16T09:01:38;29.05;;;20.45;;
32333;SDS011;18810;53.040;8.850;2023-04-16T09:04:05;32.78;;;20.05;;
32333;SDS011;18810;53.040;8.850;2023-04-16T09:06:32;32.78;;;21.33;;
32333;SDS011;18810;53.040;8.850;2023-04-16T09:08:59;33.55;;;20.50;;
32333;SDS011;18810;53.040;8.850;2023-04-16T09:11:28;26.58;;;18.42;;
32333;SDS011;18810;53.040;8.850;2023-04-16T09:13:54;29.25;;;19.33;;
32333;SDS011;18810;53.040;8.850;2023-04-16T09:16:21;26.80;;;19.15;;
32333;SDS011;18810;53.040;8.850;2023-04-16T09:18:48;27.50;;;18.60;;
32333;SDS011;18810;53.040;8.850;2023-04-16T09:21:16;25.15;;;19.05;;
32333;SDS011;18810;53.040;8.850;2023-04-16T09:23:41;28.20;;;18.55;;
32333;SDS011;18810;53.040;8.850;2023-04-16T09:26:07;26.05;;;18.90;;
32333;SDS011;18810;53.040;8.850;2023-04-16T09:28:44;28.27;;;19.85;;
32333;SDS011;18810;53.040;8.850;2023-04-16T09:33:36;28.67;;;19.13;;
32333;SDS011;18810;53.040;8.850;2023-04-16T09:36:02;29.40;;;18.98;;
32333;SDS011;18810;53.040;8.850;2023-04-16T09:41:13;30.15;;;20.20;;
32333;SDS011;18810;53.040;8.850;2023-04-16T09:43:40;27.35;;;19.02;;
32333;SDS011;18810;53.040;8.850;2023-04-16T09:49:04;28.23;;;18.35;;
32333;SDS011;18810;53.040;8.850;2023-04-16T09:51:40;29.20;;;19.10;;
32333;SDS011;18810;53.040;8.850;2023-04-16T09:54:07;24.75;;;17.80;;
32333;SDS011;18810;53.040;8.850;2023-04-16T09:56:38;27.85;;;18.45;;
32333;SDS011;18810;53.040;8.850;2023-04-16T09:59:08;29.52;;;18.98;;
32333;SDS011;18810;53.040;8.850;2023-04-16T10:01:45;24.17;;;18.23;;
32333;SDS011;18810;53.040;8.850;2023-04-16T10:04:11;27.10;;;19.02;;
32333;SDS011;18810;53.040;8.850;2023-04-16T10:06:36;25.13;;;19.48;;
32333;SDS011;18810;53.040;8.850;2023-04-16T10:09:04;28.30;;;18.73;;
32333;SDS011;18810;53.040;8.850;2023-04-16T10:11:31;26.65;;;19.33;;
32333;SDS011;18810;53.040;8.850;2023-04-16T10:13:57;28.13;;;18.70;;
32333;SDS011;18810;53.040;8.850;2023-04-16T10:16:23;25.90;;;19.00;;
32333;SDS011;18810;53.040;8.850;2023-04-16T10:18:49;27.45;;;18.27;;
32333;SDS011;18810;53.040;8.850;2023-04-16T10:21:15;25.52;;;18.90;;
32333;SDS011;18810;53.040;8.850;2023-04-16T10:23:41;28.67;;;20.17;;
32333;SDS011;18810;53.040;8.850;2023-04-16T10:26:08;28.98;;;19.50;;
32333;SDS011;18810;53.040;8.850;2023-04-16T10:28:34;29.00;;;20.38;;
32333;SDS011;18810;53.040;8.850;2023-04-16T10:31:01;28.33;;;19.27;;
32333;SDS011;18810;53.040;8.850;2023-04-16T10:33:30;26.20;;;18.65;;
32333;SDS011;18810;53.040;8.850;2023-04-16T10:36:12;28.30;;;20.08;;
32333;SDS011;18810;53.040;8.850;2023-04-16T10:38:39;30.08;;;20.15;;
32333;SDS011;18810;53.040;8.850;2023-04-16T10:41:15;29.83;;;20.65;;
32333;SDS011;18810;53.040;8.850;2023-04-16T10:43:47;26.35;;;19.85;;
32333;SDS011;18810;53.040;8.850;2023-04-16T10:48:53;23.65;;;17.85;;
32333;SDS011;18810;53.040;8.850;2023-04-16T10:51:29;25.45;;;19.42;;
32333;SDS011;18810;53.040;8.850;2023-04-16T10:54:03;23.48;;;18.17;;
32333;SDS011;18810;53.040;8.850;2023-04-16T10:56:32;26.80;;;19.08;;
32333;SDS011;18810;53.040;8.850;2023-04-16T10:58:58;28.63;;;19.15;;
32333;SDS011;18810;53.040;8.850;2023-04-16T11:01:34;33.33;;;19.58;;
32333;SDS011;18810;53.040;8.850;2023-04-16T11:04:25;25.58;;;19.20;;
32333;SDS011;18810;53.040;8.850;2023-04-16T11:14:53;26.77;;;19.02;;
32333;SDS011;18810;53.040;8.850;2023-04-16T11:17:26;23.27;;;18.65;;
32333;SDS011;18810;53.040;8.850;2023-04-16T11:20:01;23.58;;;18.20;;
32333;SDS011;18810;53.040;8.850;2023-04-16T11:22:27;22.80;;;18.10;;
32333;SDS011;18810;53.040;8.850;2023-04-16T11:24:55;26.95;;;18.83;;
32333;SDS011;18810;53.040;8.850;2023-04-16T11:27:22;25.48;;;19.15;;
32333;SDS011;18810;53.040;8.850;2023-04-16T11:30:01;26.33;;;18.83;;
32333;SDS011;18810;53.040;8.850;2023-04-16T11:32:32;22.98;;;17.65;;
32333;SDS011;18810;53.040;8.850;2023-04-16T11:34:59;27.17;;;18.77;;
32333;SDS011;18810;53.040;8.850;2023-04-16T11:37:35;24.95;;;18.00;;
32333;SDS011;18810;53.040;8.850;2023-04-16T11:40:02;24.02;;;18.05;;
32333;SDS011;18810;53.040;8.850;2023-04-16T11:42:31;23.17;;;17.48;;
32333;SDS011;18810;53.040;8.850;2023-04-16T11:44:58;27.80;;;19.00;;
32333;SDS011;18810;53.040;8.850;2023-04-16T11:47:28;26.80;;;18.67;;
32333;SDS011;18810;53.040;8.850;2023-04-16T11:49:54;25.63;;;19.05;;
32333;SDS011;18810;53.040;8.850;2023-04-16T11:52:24;23.70;;;18.40;;
32333;SDS011;18810;53.040;8.850;2023-04-16T11:54:51;27.05;;;19.13;;
32333;SDS011;18810;53.040;8.850;2023-04-16T11:57:26;25.73;;;18.88;;
32333;SDS011;18810;53.040;8.850;2023-04-16T11:59:53;23.95;;;18.55;;
32333;SDS011;18810;53.040;8.850;2023-04-16T12:02:33;24.60;;;18.63;;
32333;SDS011;18810;53.040;8.850;2023-04-16T12:05:00;26.38;;;20.50;;
32333;SDS011;18810;53.040;8.850;2023-04-16T12:07:30;25.63;;;18.30;;
32333;SDS011;18810;53.040;8.850;2023-04-16T12:10:05;27.13;;;20.40;;
32333;SDS011;18810;53.040;8.850;2023-04-16T12:12:32;23.25;;;18.30;;
32333;SDS011;18810;53.040;8.850;2023-04-16T12:14:58;25.20;;;18.98;;
32333;SDS011;18810;53.040;8.850;2023-04-16T12:17:27;24.75;;;18.70;;
32333;SDS011;18810;53.040;8.850;2023-04-16T12:20:00;28.50;;;20.10;;
32333;SDS011;18810;53.040;8.850;2023-04-16T12:22:33;28.25;;;19.80;;
32333;SDS011;18810;53.040;8.850;2023-04-16T12:25:01;24.35;;;18.70;;
32333;SDS011;18810;53.040;8.850;2023-04-16T12:27:41;27.25;;;19.75;;
32333;SDS011;18810;53.040;8.850;2023-04-16T12:30:17;26.30;;;19.75;;
32333;SDS011;18810;53.040;8.850;2023-04-16T12:32:45;25.90;;;20.10;;
32333;SDS011;18810;53.040;8.850;2023-04-16T12:35:12;27.40;;;21.00;;
32333;SDS011;18810;53.040;8.850;2023-04-16T12:37:38;29.15;;;21.45;;
32333;SDS011;18810;53.040;8.850;2023-04-16T12:40:05;32.28;;;21.63;;
32333;SDS011;18810;53.040;8.850;2023-04-16T12:42:31;26.83;;;20.65;;
32333;SDS011;18810;53.040;8.850;2023-04-16T12:45:04;27.52;;;20.70;;
32333;SDS011;18810;53.040;8.850;2023-04-16T12:47:31;26.83;;;20.00;;
32333;SDS011;18810;53.040;8.850;2023-04-16T12:49:57;27.63;;;20.92;;
32333;SDS011;18810;53.040;8.850;2023-04-16T12:52:23;28.55;;;20.98;;
32333;SDS011;18810;53.040;8.850;2023-04-16T12:54:50;27.63;;;19.90;;
32333;SDS011;18810;53.040;8.850;2023-04-16T12:57:16;26.10;;;20.48;;
32333;SDS011;18810;53.040;8.850;2023-04-16T12:59:42;29.30;;;20.92;;
32333;SDS011;18810;53.040;8.850;2023-04-16T13:02:08;28.33;;;20.98;;
32333;SDS011;18810;53.040;8.850;2023-04-16T13:04:34;27.63;;;21.90;;
32333;SDS011;18810;53.040;8.850;2023-04-16T13:06:59;31.35;;;22.58;;
32333;SDS011;18810;53.040;8.850;2023-04-16T13:09:25;29.75;;;21.23;;
32333;SDS011;18810;53.040;8.850;2023-04-16T13:11:52;26.75;;;21.58;;
32333;SDS011;18810;53.040;8.850;2023-04-16T13:14:19;28.92;;;21.13;;
32333;SDS011;18810;53.040;8.850;2023-04-16T13:16:45;30.60;;;22.27;;
32333;SDS011;18810;53.040;8.850;2023-04-16T13:19:10;28.75;;;21.23;;
32333;SDS011;18810;53.040;8.850;2023-04-16T13:21:36;28.30;;;21.30;;
32333;SDS011;18810;53.040;8.850;2023-04-16T13:24:02;32.17;;;22.77;;
32333;SDS011;18810;53.040;8.850;2023-04-16T13:26:29;28.33;;;21.10;;
32333;SDS011;18810;53.040;8.850;2023-04-16T13:28:55;27.25;;;21.52;;
32333;SDS011;18810;53.040;8.850;2023-04-16T13:31:21;28.63;;;21.42;;
32333;SDS011;18810;53.040;8.850;2023-04-16T13:33:46;28.15;;;21.85;;
32333;SDS011;18810;53.040;8.850;2023-04-16T13:36:13;29.52;;;21.55;;
32333;SDS011;18810;53.040;8.850;2023-04-16T13:38:38;28.90;;;21.92;;
32333;SDS011;18810;53.040;8.850;2023-04-16T13:41:06;29.63;;;21.98;;
32333;SDS011;18810;53.040;8.850;2023-04-16T13:43:32;28.67;;;21.35;;
32333;SDS011;18810;53.040;8.850;2023-04-16T13:45:58;27.60;;;21.55;;
32333;SDS011;18810;53.040;8.850;2023-04-16T13:48:25;26.70;;;20.92;;
32333;SDS011;18810;53.040;8.850;2023-04-16T13:50:52;29.17;;;22.42;;
32333;SDS011;18810;53.040;8.850;2023-04-16T13:53:18;32.00;;;22.40;;
32333;SDS011;18810;53.040;8.850;2023-04-16T13:55:43;36.67;;;24.20;;
32333;SDS011;18810;53.040;8.850;2023-04-16T13:58:09;28.95;;;22.65;;
32333;SDS011;18810;53.040;8.850;2023-04-16T14:00:35;34.13;;;23.20;;
32333;SDS011;18810;53.040;8.850;2023-04-16T14:03:01;30.02;;;23.10;;
32333;SDS011;18810;53.040;8.850;2023-04-16T14:05:29;27.63;;;22.15;;
32333;SDS011;18810;53.040;8.850;2023-04-16T14:07:57;30.40;;;23.08;;
32333;SDS011;18810;53.040;8.850;2023-04-16T14:10:23;31.23;;;23.08;;
32333;SDS011;18810;53.040;8.850;2023-04-16T14:12:49;34.30;;;23.92;;
32333;SDS011;18810;53.040;8.850;2023-04-16T14:15:16;33.70;;;24.27;;
32333;SDS011;18810;53.040;8.850;2023-04-16T14:17:51;33.40;;;24.05;;
32333;SDS011;18810;53.040;8.850;2023-04-16T14:20:18;33.85;;;23.98;;
32333;SDS011;18810;53.040;8.850;2023-04-16T14:22:44;36.15;;;24.52;;
32333;SDS011;18810;53.040;8.850;2023-04-16T14:25:10;33.47;;;23.92;;
32333;SDS011;18810;53.040;8.850;2023-04-16T14:27:36;32.20;;;23.10;;
32333;SDS011;18810;53.040;8.850;2023-04-16T14:30:03;32.80;;;22.90;;
32333;SDS011;18810;53.040;8.850;2023-04-16T14:32:29;33.65;;;23.15;;
32333;SDS011;18810;53.040;8.850;2023-04-16T14:34:55;32.80;;;23.08;;
32333;SDS011;18810;53.040;8.850;2023-04-16T14:37:21;29.88;;;22.83;;